createdAt,value
2022-12-17T08:25:26.927Z,78.08
2022-12-17T08:26:48.386Z,77.82
2022-12-17T08:31:26.597Z,75.49
2022-12-17T08:34:57.102Z,73.74
2022-12-17T08:41:14.086Z,76.32
2022-12-17T08:44:27.607Z,75.32
2022-12-17T08:48:58.075Z,74.22
2022-12-17T08:51:41.659Z,73.97
2022-12-17T08:53:01.798Z,74.12
2022-12-17T08:54:22.064Z,73.98
2022-12-17T08:55:42.297Z,73.27
2022-12-17T08:57:02.282Z,72.78
2022-12-17T08:58:22.319Z,73.07
2022-12-17T08:59:45.776Z,73.77
2022-12-17T09:01:05.641Z,71.38
2022-12-17T09:02:28.660Z,69.98
2022-12-17T09:03:48.789Z,67.21
2022-12-17T09:05:08.616Z,66.27
2022-12-17T09:06:28.865Z,66.31
2022-12-17T09:07:53.058Z,64.43
2022-12-17T09:09:17.604Z,64.09
2022-12-17T09:10:37.427Z,62.30
2022-12-17T09:11:57.688Z,62.54
2022-12-17T09:13:22.474Z,61.66
2022-12-17T09:14:46.603Z,61.23
2022-12-17T09:16:11.475Z,59.54
2022-12-17T09:17:31.131Z,59.29
2022-12-17T09:18:51.260Z,57.15
2022-12-17T09:20:14.701Z,57.99
2022-12-17T09:21:34.367Z,57.87
2022-12-17T09:22:54.768Z,58.07
2022-12-17T09:24:14.542Z,57.10
2022-12-17T09:25:34.686Z,56.27
2022-12-17T09:26:54.970Z,54.36
2022-12-17T09:28:19.618Z,51.83
2022-12-17T09:29:39.813Z,50.37
2022-12-17T09:30:59.600Z,49.30
2022-12-17T09:32:19.642Z,48.36
2022-12-17T09:33:43.199Z,45.57
2022-12-17T09:35:02.934Z,44.44
2022-12-17T09:36:24.767Z,41.46
2022-12-17T09:37:44.461Z,39.63
2022-12-17T09:39:07.667Z,38.64
2022-12-17T09:40:35.401Z,37.96
2022-12-17T09:42:13.369Z,36.79
2022-12-17T09:43:55.547Z,36.00
2022-12-17T09:45:22.955Z,34.79
2022-12-17T09:46:52.470Z,33.72
2022-12-17T09:48:32.853Z,33.54
2022-12-17T09:49:53.165Z,32.90
2022-12-17T09:51:12.902Z,31.88
2022-12-17T09:52:58.435Z,30.48
2022-12-17T09:54:23.073Z,30.72
2022-12-17T09:55:58.498Z,31.57
2022-12-17T09:57:18.802Z,30.82
2022-12-17T09:58:47.181Z,31.11
2022-12-17T10:00:11.158Z,31.04
2022-12-17T10:01:40.800Z,31.28
2022-12-17T10:03:00.829Z,30.70
2022-12-17T10:04:25.170Z,29.78
2022-12-17T10:05:50.050Z,29.21
2022-12-17T10:07:09.862Z,29.50
2022-12-17T10:08:34.313Z,29.58
2022-12-17T10:09:55.150Z,29.10
2022-12-17T10:11:34.176Z,29.01
2022-12-17T10:12:55.021Z,28.93
2022-12-17T10:14:14.798Z,28.99
2022-12-17T10:15:38.259Z,29.03
2022-12-17T10:17:08.553Z,29.04
2022-12-17T10:18:35.245Z,28.29
2022-12-17T10:19:58.995Z,27.93
2022-12-17T10:21:28.496Z,26.52
2022-12-17T10:22:48.240Z,27.58
2022-12-17T10:24:08.037Z,28.51
2022-12-17T10:25:54.759Z,27.86
2022-12-17T10:27:17.960Z,28.84
2022-12-17T10:28:41.519Z,28.53
2022-12-17T10:30:03.276Z,27.87
2022-12-17T10:31:29.735Z,27.80
2022-12-17T10:32:54.178Z,28.30
2022-12-17T10:34:16.178Z,28.07
2022-12-17T10:35:45.145Z,29.06
2022-12-17T10:37:08.314Z,28.95
2022-12-17T10:38:51.249Z,30.40
2022-12-17T10:40:19.082Z,29.48
2022-12-17T10:41:44.931Z,28.92
2022-12-17T10:43:04.788Z,27.20
2022-12-17T10:45:13.738Z,27.10
2022-12-17T10:46:48.476Z,27.57
2022-12-17T10:48:08.621Z,28.17
2022-12-17T10:49:34.347Z,26.61
2022-12-17T10:51:00.819Z,26.31
2022-12-17T10:52:25.279Z,26.55
2022-12-17T10:53:45.512Z,27.33
2022-12-17T10:55:18.114Z,27.77
2022-12-17T10:56:45.177Z,27.51
2022-12-17T10:58:08.244Z,25.88
2022-12-17T10:59:50.457Z,25.94
2022-12-17T11:01:18.315Z,24.92
2022-12-17T11:02:48.350Z,26.08
2022-12-17T11:04:18.686Z,26.81
2022-12-17T11:05:57.776Z,26.29
2022-12-17T11:07:19.526Z,28.03
2022-12-17T11:08:40.651Z,27.46
2022-12-17T11:10:09.852Z,27.61
2022-12-17T11:11:33.283Z,26.71
2022-12-17T11:13:00.630Z,27.39
2022-12-17T11:14:23.688Z,27.62
2022-12-17T11:15:55.446Z,27.80
2022-12-17T11:17:21.481Z,28.09
2022-12-17T11:18:47.056Z,26.70
2022-12-17T11:20:24.774Z,27.37
2022-12-17T11:21:58.524Z,26.23
2022-12-17T11:23:19.256Z,26.82
2022-12-17T11:24:51.416Z,26.55
2022-12-17T11:26:31.077Z,27.69
2022-12-17T11:28:03.344Z,26.52
2022-12-17T11:29:23.323Z,27.90
2022-12-17T11:30:45.485Z,26.92
2022-12-17T11:32:20.544Z,27.00
2022-12-17T11:33:49.745Z,26.70
2022-12-17T11:35:25.248Z,26.12
2022-12-17T11:36:57.975Z,26.03
2022-12-17T11:38:44.642Z,26.32
2022-12-17T11:40:19.678Z,27.60
2022-12-17T11:41:55.601Z,27.80
2022-12-17T11:43:30.769Z,29.35
2022-12-17T11:45:04.227Z,28.39
2022-12-17T11:46:41.942Z,28.59
2022-12-17T11:48:13.669Z,28.04
2022-12-17T11:49:52.929Z,28.22
2022-12-17T11:51:19.248Z,27.91
2022-12-17T11:52:58.048Z,27.93
2022-12-17T11:54:24.849Z,28.36
2022-12-17T11:55:50.332Z,28.67
2022-12-17T11:57:15.156Z,29.99
2022-12-17T11:58:46.531Z,28.95
2022-12-17T12:00:25.584Z,28.89
2022-12-17T12:02:00.025Z,29.39
2022-12-17T12:03:26.092Z,28.93
2022-12-17T12:05:15.653Z,28.95
2022-12-17T12:07:22.481Z,28.10
2022-12-17T12:08:48.332Z,29.79
2022-12-17T12:10:08.138Z,30.35
2022-12-17T12:11:58.541Z,32.62
2022-12-17T12:13:37.656Z,31.82
2022-12-17T12:15:35.974Z,32.86
2022-12-17T12:17:13.733Z,33.16
2022-12-17T12:18:48.700Z,33.33
2022-12-17T12:20:21.008Z,32.14
2022-12-17T12:21:58.064Z,32.79
2022-12-17T12:23:35.336Z,33.49
2022-12-17T12:25:14.120Z,31.00
2022-12-17T12:26:36.522Z,31.53
2022-12-17T12:28:12.067Z,34.10
2022-12-17T12:29:55.337Z,34.23
2022-12-17T12:31:45.790Z,32.98
2022-12-17T12:33:10.250Z,33.38
2022-12-17T12:34:35.789Z,34.41
2022-12-17T12:35:56.740Z,35.42
2022-12-17T12:37:20.699Z,36.38
2022-12-17T12:38:52.158Z,36.38
2022-12-17T12:40:40.204Z,34.59
2022-12-17T12:42:34.156Z,35.24
2022-12-17T12:44:03.985Z,35.02
2022-12-17T12:46:11.541Z,34.86
2022-12-17T12:47:51.392Z,35.73
2022-12-17T12:49:29.789Z,37.25
2022-12-17T12:51:05.526Z,37.00
2022-12-17T12:52:29.680Z,38.95
2022-12-17T12:53:50.500Z,39.51
2022-12-17T12:55:13.215Z,41.67
2022-12-17T12:56:54.403Z,42.55
2022-12-17T12:58:23.253Z,42.61
2022-12-17T12:59:55.374Z,41.05
2022-12-17T13:01:20.204Z,40.15
2022-12-17T13:02:50.739Z,41.02
2022-12-17T13:04:13.813Z,42.05
2022-12-17T13:05:39.521Z,44.18
2022-12-17T13:06:55.393Z,43.86
2022-12-17T13:08:08.677Z,43.80
2022-12-17T13:09:16.437Z,42.06
2022-12-17T13:10:30.521Z,41.13
2022-12-17T13:11:38.332Z,41.11
2022-12-17T13:12:47.382Z,40.77
2022-12-17T13:13:56.079Z,40.36
2022-12-17T13:15:06.253Z,40.14
2022-12-17T13:16:45.966Z,40.53
2022-12-17T13:18:04.766Z,41.23
2022-12-17T13:19:20.480Z,44.03
2022-12-17T13:20:30.926Z,44.79
2022-12-17T13:21:32.840Z,42.71
2022-12-17T13:22:34.189Z,43.33
2022-12-17T13:23:38.097Z,43.90
2022-12-17T13:24:39.819Z,45.81
2022-12-17T13:25:42.182Z,47.15
2022-12-17T13:26:45.479Z,47.87
2022-12-17T13:27:48.112Z,46.92
2022-12-17T13:28:59.818Z,47.95
2022-12-17T13:30:33.326Z,48.48
2022-12-17T13:32:05.271Z,49.01
2022-12-17T13:33:24.889Z,49.65
2022-12-17T13:35:00.617Z,49.24
2022-12-17T13:36:18.606Z,49.14
2022-12-17T13:37:50.530Z,48.70
2022-12-17T13:39:00.760Z,47.74
2022-12-17T13:40:17.330Z,47.02
2022-12-17T13:41:21.277Z,47.40
2022-12-17T13:42:36.423Z,47.94
2022-12-17T13:43:51.114Z,47.81
2022-12-17T13:44:53.412Z,47.26
2022-12-17T13:45:55.593Z,47.27
2022-12-17T13:47:00.928Z,47.90
2022-12-17T13:48:27.204Z,47.60
2022-12-17T13:49:30.411Z,46.41
2022-12-17T13:50:34.847Z,46.38
2022-12-17T13:51:37.161Z,47.79
2022-12-17T13:52:39.117Z,48.46
2022-12-17T13:53:40.468Z,48.22
2022-12-17T13:54:41.825Z,47.29
2022-12-17T13:55:50.570Z,47.11
2022-12-17T13:56:52.211Z,46.89
2022-12-17T13:57:54.282Z,48.90
2022-12-17T13:58:57.389Z,48.65
2022-12-17T14:00:02.284Z,49.40
2022-12-17T14:01:14.645Z,49.48
2022-12-17T14:02:31.504Z,49.41
2022-12-17T14:03:57.136Z,48.57
2022-12-17T14:04:57.252Z,48.76
2022-12-17T14:05:59.705Z,47.81
2022-12-17T14:07:05.259Z,48.14
2022-12-17T14:08:06.796Z,49.21
2022-12-17T14:09:18.461Z,49.22
2022-12-17T14:10:20.412Z,49.14
2022-12-17T14:11:40.884Z,50.04
2022-12-17T14:12:43.223Z,49.09
2022-12-17T14:13:47.289Z,49.83
2022-12-17T14:14:52.507Z,49.77
2022-12-17T14:15:53.967Z,49.91
2022-12-17T14:16:55.851Z,49.77
2022-12-17T14:17:59.224Z,50.18
2022-12-17T14:19:00.802Z,51.85
2022-12-17T14:20:15.849Z,51.11
2022-12-17T14:21:18.191Z,52.33
2022-12-17T14:22:29.690Z,52.81
2022-12-17T14:23:36.779Z,52.71
2022-12-17T14:24:38.929Z,53.18
2022-12-17T14:25:42.634Z,53.71
2022-12-17T14:27:00.775Z,54.00
2022-12-17T14:28:24.928Z,53.03
2022-12-17T14:29:32.486Z,53.16
2022-12-17T14:31:02.471Z,53.63
2022-12-17T14:32:21.485Z,54.71
2022-12-17T14:33:31.460Z,55.54
2022-12-17T14:34:42.684Z,56.30
2022-12-17T14:35:59.127Z,56.64
2022-12-17T14:37:00.864Z,57.27
2022-12-17T14:38:03.243Z,58.25
2022-12-17T14:39:24.862Z,59.33
2022-12-17T14:40:26.543Z,59.17
2022-12-17T14:41:54.379Z,58.16
2022-12-17T14:43:00.791Z,58.90
2022-12-17T14:44:03.121Z,59.49
2022-12-17T14:45:25.727Z,58.85
2022-12-17T14:46:29.352Z,59.21
2022-12-17T14:47:35.788Z,59.36
2022-12-17T14:48:55.792Z,60.25
2022-12-17T14:50:02.252Z,60.57
2022-12-17T14:51:06.500Z,59.91
2022-12-17T14:52:15.083Z,61.40
2022-12-17T14:53:26.686Z,61.13
2022-12-17T14:54:30.834Z,61.94
2022-12-17T14:55:37.945Z,62.49
2022-12-17T14:56:40.363Z,62.09
2022-12-17T14:57:45.918Z,62.18
2022-12-17T14:58:47.614Z,63.04
2022-12-17T14:59:50.278Z,63.58
2022-12-17T15:00:58.056Z,64.38
2022-12-17T15:02:26.401Z,65.78
2022-12-17T15:03:31.884Z,65.77
2022-12-17T15:04:38.367Z,66.04
2022-12-17T15:05:39.793Z,66.23
2022-12-17T15:06:41.870Z,66.25
2022-12-17T15:07:43.951Z,67.40
2022-12-17T15:08:48.225Z,67.39
2022-12-17T15:09:49.655Z,68.72
2022-12-17T15:10:51.471Z,68.56
2022-12-17T15:11:52.843Z,69.22
2022-12-17T15:12:54.209Z,69.13
2022-12-17T15:13:56.790Z,70.35
2022-12-17T15:14:58.384Z,70.09
2022-12-17T15:15:59.799Z,70.60
2022-12-17T15:17:01.831Z,71.42
2022-12-17T15:18:03.504Z,71.94
2022-12-17T15:19:04.896Z,72.07
2022-12-17T15:20:06.780Z,72.16
2022-12-17T15:21:10.959Z,72.90
2022-12-17T15:22:17.228Z,73.15
2022-12-17T15:23:21.227Z,73.59
2022-12-17T15:24:22.689Z,73.80
2022-12-17T15:25:24.116Z,74.36
2022-12-17T15:26:25.536Z,74.92
2022-12-17T15:27:26.896Z,74.87
2022-12-17T15:28:28.297Z,75.43
2022-12-17T15:29:31.788Z,76.03
2022-12-17T15:30:33.173Z,76.56
2022-12-17T15:31:35.798Z,76.70
2022-12-17T15:32:37.371Z,76.54
2022-12-17T15:33:39.412Z,77.12
2022-12-17T15:34:40.894Z,77.35
2022-12-17T15:35:42.772Z,77.81
2022-12-17T15:36:44.182Z,78.08
2022-12-17T15:37:45.508Z,78.02
2022-12-17T15:38:46.849Z,78.08
2022-12-17T15:39:48.300Z,78.40
2022-12-17T15:40:56.147Z,78.51
2022-12-17T15:42:16.203Z,79.23
2022-12-17T15:43:17.848Z,79.28
2022-12-17T15:44:19.264Z,79.34
2022-12-17T15:45:20.595Z,79.44
2022-12-17T15:46:25.291Z,79.89
2022-12-17T15:47:26.766Z,80.15
2022-12-17T15:48:28.129Z,80.09
2022-12-17T15:49:29.523Z,80.68
2022-12-17T15:50:31.574Z,81.05
